Time;durP1;ratioP1;P1;durP2;ratioP2;P2;SDS_P1;SDS_P2;PMS_P1;PMS_P2;Temp;Humidity;BMP_temperature;BMP_pressure;BME280_temperature;BME280_humidity;BME280_pressure;Samples;Min_cycle;Max_cycle;Signal;HPM_P1;HPM_P2
2023/02/06 00:01:30;;;;;;;40.92;5.57;;;;;;;5.57;100.00;104471.16;5047313;28;20060;-67
2023/02/06 00:03:55;;;;;;;33.13;5.30;;;;;;;5.61;100.00;104474.81;5046978;28;20056;-66
2023/02/06 00:06:20;;;;;;;47.58;6.03;;;;;;;5.49;100.00;104475.16;5048231;28;20025;-68
2023/02/06 00:08:46;;;;;;;32.92;4.97;;;;;;;5.54;100.00;104476.25;5045932;28;20024;-67
2023/02/06 00:11:15;;;;;;;47.53;5.97;;;;;;;5.50;100.00;104469.09;5049116;28;20070;-68
2023/02/06 00:13:40;;;;;;;28.27;4.43;;;;;;;5.49;100.00;104456.84;5049439;28;20013;-65
2023/02/06 00:16:14;;;;;;;30.65;5.72;;;;;;;5.47;100.00;104458.47;5048454;28;20032;-68
2023/02/06 00:18:40;;;;;;;39.58;6.53;;;;;;;5.51;100.00;104462.16;5048347;28;20021;-69
2023/02/06 00:21:05;;;;;;;31.45;5.35;;;;;;;5.51;100.00;104456.91;5047990;28;20031;-68
2023/02/06 00:23:30;;;;;;;35.70;5.28;;;;;;;5.49;100.00;104453.31;5046023;28;20155;-70
2023/02/06 00:25:56;;;;;;;39.28;6.10;;;;;;;5.48;100.00;104462.88;5048556;28;20070;-64
2023/02/06 00:28:21;;;;;;;26.13;4.05;;;;;;;5.51;100.00;104470.88;5047295;28;20051;-61
2023/02/06 00:30:47;;;;;;;30.73;4.38;;;;;;;5.52;100.00;104459.59;5048825;28;20025;-66
2023/02/06 00:33:12;;;;;;;29.45;4.78;;;;;;;5.55;100.00;104451.91;5049810;28;20044;-62
2023/02/06 00:35:37;;;;;;;41.15;5.18;;;;;;;5.47;100.00;104452.34;5050071;28;20583;-68
2023/02/06 00:38:05;;;;;;;39.38;6.25;;;;;;;5.48;100.00;104457.66;5050170;28;20053;-65
2023/02/06 00:40:31;;;;;;;33.63;4.43;;;;;;;5.47;100.00;104455.88;5050576;28;20049;-69
2023/02/06 00:42:56;;;;;;;40.42;5.90;;;;;;;5.40;100.00;104454.69;5048044;28;20060;-65
2023/02/06 00:45:21;;;;;;;29.98;5.38;;;;;;;5.34;100.00;104457.03;5048283;28;20411;-61
2023/02/06 00:47:47;;;;;;;27.15;4.63;;;;;;;5.26;100.00;104454.06;5050138;28;20021;-68
2023/02/06 00:50:12;;;;;;;34.95;4.72;;;;;;;5.20;100.00;104455.50;5051107;28;20104;-64
2023/02/06 00:52:38;;;;;;;46.55;6.15;;;;;;;5.16;100.00;104449.22;5051485;28;20024;-68
2023/02/06 00:55:04;;;;;;;35.40;4.72;;;;;;;5.20;100.00;104438.06;5051174;28;20021;-62
2023/02/06 00:57:29;;;;;;;34.90;6.00;;;;;;;5.21;100.00;104437.22;5050196;28;20021;-69
2023/02/06 00:59:54;;;;;;;44.25;5.20;;;;;;;5.21;100.00;104444.19;5050671;28;20036;-69
2023/02/06 01:02:20;;;;;;;39.33;5.03;;;;;;;5.23;100.00;104446.06;5051117;28;20352;-63
2023/02/06 01:04:47;;;;;;;39.08;5.95;;;;;;;5.12;100.00;104450.78;5047860;28;20033;-68
2023/02/06 01:07:12;;;;;;;37.20;5.88;;;;;;;5.14;100.00;104453.47;5047865;28;20092;-64
2023/02/06 01:09:37;;;;;;;30.00;4.85;;;;;;;5.06;100.00;104453.13;5049443;28;20021;-68
2023/02/06 01:12:03;;;;;;;30.80;4.30;;;;;;;5.05;100.00;104461.75;5050106;28;20029;-68
2023/02/06 01:14:28;;;;;;;31.08;4.18;;;;;;;5.00;100.00;104456.31;5050262;28;20555;-67
2023/02/06 01:16:54;;;;;;;38.17;5.18;;;;;;;5.02;100.00;104453.78;5051538;28;20021;-61
2023/02/06 01:19:19;;;;;;;29.35;4.93;;;;;;;5.01;100.00;104454.59;5049888;28;20033;-69
2023/02/06 01:21:44;;;;;;;47.17;5.60;;;;;;;4.93;100.00;104457.75;5049178;28;20028;-64
2023/02/06 01:24:10;;;;;;;34.13;5.10;;;;;;;4.86;100.00;104458.28;5049136;28;20501;-64
2023/02/06 01:26:35;;;;;;;31.83;4.40;;;;;;;4.86;100.00;104457.38;5028505;28;20076;-68
2023/02/06 01:29:01;;;;;;;30.80;4.45;;;;;;;4.83;100.00;104460.75;5028722;28;20029;-64
2023/02/06 01:31:28;;;;;;;30.38;4.82;;;;;;;4.84;100.00;104454.69;5043845;28;20079;-69
2023/02/06 01:33:54;;;;;;;22.27;4.03;;;;;;;4.80;100.00;104461.50;5027592;28;20026;-69
2023/02/06 01:36:21;;;;;;;36.40;4.38;;;;;;;4.76;100.00;104459.53;5029580;28;20402;-63
2023/02/06 01:38:47;;;;;;;30.67;4.97;;;;;;;4.72;100.00;104467.16;5027808;28;20032;-71
2023/02/06 01:41:13;;;;;;;31.83;5.03;;;;;;;4.74;100.00;104468.13;5027530;28;20029;-66
2023/02/06 01:43:42;;;;;;;30.52;4.63;;;;;;;4.73;100.00;104459.38;5027265;28;20025;-69
2023/02/06 01:46:08;;;;;;;24.95;4.70;;;;;;;4.72;100.00;104457.59;5032339;28;20030;-68
2023/02/06 01:48:37;;;;;;;31.77;4.75;;;;;;;4.71;100.00;104453.19;5046794;28;20025;-68
2023/02/06 01:51:06;;;;;;;46.58;6.20;;;;;;;4.68;100.00;104445.19;5045547;28;20052;-63
2023/02/06 01:53:32;;;;;;;32.60;4.20;;;;;;;4.70;100.00;104443.56;5028163;28;20021;-66
2023/02/06 01:56:00;;;;;;;33.72;4.88;;;;;;;4.75;100.00;104441.16;5046411;28;20037;-62
2023/02/06 01:58:29;;;;;;;36.55;5.25;;;;;;;4.78;100.00;104447.44;5046472;28;20033;-68
2023/02/06 02:00:55;;;;;;;;;;;;;;;4.75;100.00;104442.06;5045067;28;20039;-69
2023/02/06 02:03:20;;;;;;;25.55;4.78;;;;;;;4.72;100.00;104452.38;5048549;28;19912;-67
2023/02/06 02:05:47;;;;;;;24.48;4.90;;;;;;;4.68;100.00;104447.81;5043483;28;20483;-67
2023/02/06 02:08:23;;;;;;;30.58;3.65;;;;;;;4.62;100.00;104444.91;5037794;28;20029;-66
2023/02/06 02:10:48;;;;;;;29.55;4.35;;;;;;;4.61;100.00;104449.22;5044193;28;20044;-68
2023/02/06 02:13:13;;;;;;;47.47;5.15;;;;;;;4.56;100.00;104453.31;5045749;28;20380;-68
2023/02/06 02:15:47;;;;;;;31.45;4.03;;;;;;;4.51;100.00;104437.44;5048685;28;20060;-65
2023/02/06 02:18:25;;;;;;;32.97;4.90;;;;;;;4.50;100.00;104440.88;5049696;28;20021;-65
2023/02/06 02:21:12;;;;;;;27.58;4.18;;;;;;;4.47;100.00;104432.88;5049290;28;20467;-68
2023/02/06 02:24:20;;;;;;;26.60;5.13;;;;;;;4.41;100.00;104425.63;5049172;28;20036;-64
2023/02/06 02:27:10;;;;;;;19.02;3.85;;;;;;;4.40;100.00;104422.94;5018651;28;20255;-68
2023/02/06 02:30:10;;;;;;;35.45;3.95;;;;;;;4.39;100.00;104424.66;5043528;28;20443;-67
2023/02/06 02:33:17;;;;;;;25.83;4.15;;;;;;;4.38;100.00;104421.97;5026424;28;20427;-67
2023/02/06 02:36:08;;;;;;;27.48;4.70;;;;;;;4.30;100.00;104417.25;5025363;28;20079;-67
2023/02/06 02:39:08;;;;;;;29.70;4.05;;;;;;;4.30;100.00;104419.88;5032908;28;20041;-70
2023/02/06 02:41:40;;;;;;;26.15;3.72;;;;;;;4.37;100.00;104418.44;5048059;28;20102;-64
2023/02/06 02:44:11;;;;;;;22.85;3.35;;;;;;;4.39;100.00;104419.44;5049241;28;20353;-65
2023/02/06 02:46:42;;;;;;;41.58;4.60;;;;;;;4.36;100.00;104414.06;5046659;28;20034;-64
2023/02/06 02:49:13;;;;;;;32.00;4.63;;;;;;;4.39;100.00;104413.28;5042952;28;20025;-71
2023/02/06 02:51:39;;;;;;;33.58;3.95;;;;;;;4.38;100.00;104408.91;5046993;28;20025;-67
2023/02/06 02:54:05;;;;;;;29.58;4.70;;;;;;;4.36;100.00;104415.78;5047113;28;20052;-64
2023/02/06 02:56:34;;;;;;;32.47;3.40;;;;;;;4.32;100.00;104409.50;5049097;28;20114;-70
2023/02/06 02:59:04;;;;;;;30.00;4.35;;;;;;;4.27;100.00;104413.56;5049609;28;20055;-66
2023/02/06 03:01:40;;;;;;;25.17;3.75;;;;;;;4.28;100.00;104407.56;5047487;28;20021;-69
2023/02/06 03:04:11;;;;;;;24.67;3.25;;;;;;;4.25;100.00;104405.66;5049486;28;20032;-69
2023/02/06 03:06:49;;;;;;;30.33;4.43;;;;;;;4.22;100.00;104402.03;5048111;28;20049;-69
2023/02/06 03:09:24;;;;;;;33.55;4.55;;;;;;;4.23;100.00;104407.31;5043534;28;20094;-67
2023/02/06 03:11:56;;;;;;;21.25;3.80;;;;;;;4.24;100.00;104403.00;5048041;28;20043;-69
2023/02/06 03:14:31;;;;;;;32.90;4.45;;;;;;;4.24;100.00;104405.63;5045362;28;20036;-63
2023/02/06 03:17:07;;;;;;;38.13;4.18;;;;;;;4.25;100.00;104403.06;5047181;28;20032;-67
2023/02/06 03:19:35;;;;;;;25.02;4.13;;;;;;;4.26;100.00;104409.19;5047676;28;20028;-66
2023/02/06 03:22:02;;;;;;;36.73;4.77;;;;;;;4.27;100.00;104400.53;5047576;28;20082;-68
2023/02/06 03:24:31;;;;;;;24.15;4.15;;;;;;;4.29;100.00;104410.25;5046982;28;20035;-70
2023/02/06 03:26:59;;;;;;;27.88;4.53;;;;;;;4.37;100.00;104407.13;5047238;28;20187;-70
2023/02/06 03:29:25;;;;;;;38.38;4.70;;;;;;;4.41;100.00;104412.56;5042515;28;20053;-66
2023/02/06 03:31:55;;;;;;;31.33;4.15;;;;;;;4.43;100.00;104410.03;5044767;28;20064;-71
2023/02/06 03:34:24;;;;;;;22.38;3.70;;;;;;;4.38;100.00;104414.13;5026619;28;20026;-65
2023/02/06 03:36:51;;;;;;;20.95;3.65;;;;;;;4.36;100.00;104411.44;5027323;28;20061;-70
2023/02/06 03:39:16;;;;;;;31.52;4.53;;;;;;;4.35;100.00;104408.75;5044064;28;20034;-61
2023/02/06 03:41:42;;;;;;;31.80;4.47;;;;;;;4.35;100.00;104404.44;5027305;28;20044;-69
2023/02/06 03:44:09;;;;;;;26.35;3.90;;;;;;;4.36;100.00;104408.81;5027370;28;20040;-66
2023/02/06 03:46:36;;;;;;;35.38;3.65;;;;;;;4.28;100.00;104412.78;5042775;28;20036;-67
2023/02/06 03:49:06;;;;;;;31.05;4.82;;;;;;;4.23;100.00;104423.00;5026628;28;20456;-66
2023/02/06 03:51:34;;;;;;;26.63;4.13;;;;;;;4.24;100.00;104414.31;5043481;28;20056;-62
2023/02/06 03:54:01;;;;;;;30.20;4.70;;;;;;;4.21;100.00;104416.78;5046545;28;20067;-68
2023/02/06 03:56:32;;;;;;;26.95;3.55;;;;;;;4.19;100.00;104420.13;5046102;28;20029;-67
2023/02/06 03:58:57;;;;;;;20.25;3.58;;;;;;;4.15;100.00;104422.59;5047230;28;20514;-66
2023/02/06 04:01:23;;;;;;;19.20;3.53;;;;;;;4.16;100.00;104429.59;5045958;28;20028;-65
2023/02/06 04:03:48;;;;;;;42.63;6.72;;;;;;;4.14;100.00;104422.50;5030689;28;20112;-70
2023/02/06 04:06:14;;;;;;;23.33;4.00;;;;;;;4.09;100.00;104422.28;5048123;28;20024;-67
2023/02/06 04:08:39;;;;;;;29.38;4.50;;;;;;;4.06;100.00;104418.63;5048052;28;20033;-65
2023/02/06 04:11:04;;;;;;;33.38;4.28;;;;;;;4.07;100.00;104404.75;5042353;28;20029;-69
2023/02/06 04:13:30;;;;;;;28.05;4.20;;;;;;;4.01;100.00;104403.59;5047644;28;20035;-69
2023/02/06 04:15:55;;;;;;;31.80;3.50;;;;;;;3.99;100.00;104401.75;5046254;28;20056;-61
2023/02/06 04:18:22;;;;;;;24.42;4.07;;;;;;;3.95;100.00;104412.84;5047827;28;20075;-71
2023/02/06 04:20:48;;;;;;;26.58;4.13;;;;;;;3.88;100.00;104407.31;5048180;28;20164;-66
2023/02/06 04:23:13;;;;;;;31.05;3.72;;;;;;;3.84;100.00;104404.44;5048065;28;20096;-70
2023/02/06 04:25:39;;;;;;;29.05;4.68;;;;;;;3.78;100.00;104403.34;5047018;28;20036;-69
2023/02/06 04:28:04;;;;;;;30.60;3.80;;;;;;;3.75;100.00;104404.88;5047249;28;20040;-65
2023/02/06 04:30:29;;;;;;;32.60;4.10;;;;;;;3.72;100.00;104418.66;5046728;28;20028;-68
2023/02/06 04:32:55;;;;;;;28.83;4.55;;;;;;;3.70;100.00;104417.66;5038298;28;20020;-70
2023/02/06 04:35:20;;;;;;;34.42;5.65;;;;;;;3.71;100.00;104419.47;5048485;28;20372;-66
2023/02/06 04:37:45;;;;;;;28.80;5.00;;;;;;;3.73;100.00;104428.25;5044662;28;20458;-63
2023/02/06 04:40:11;;;;;;;29.13;4.68;;;;;;;3.75;100.00;104423.13;5047792;28;20048;-68
2023/02/06 04:42:36;;;;;;;37.88;4.22;;;;;;;3.78;100.00;104437.25;5045862;28;20122;-67
2023/02/06 04:45:02;;;;;;;25.25;4.05;;;;;;;3.77;100.00;104439.78;5046918;28;20426;-70
2023/02/06 04:47:27;;;;;;;28.05;4.30;;;;;;;3.80;100.00;104445.16;5047328;28;20406;-67
2023/02/06 04:49:53;;;;;;;26.85;3.65;;;;;;;3.78;100.00;104437.25;5045932;28;20467;-68
2023/02/06 04:52:18;;;;;;;28.10;3.90;;;;;;;3.76;100.00;104432.75;5043888;28;20037;-68
2023/02/06 04:54:44;;;;;;;31.85;4.05;;;;;;;3.74;100.00;104429.19;5047421;28;20438;-61
2023/02/06 04:57:09;;;;;;;37.03;5.10;;;;;;;3.75;100.00;104421.44;5047187;28;20025;-68
2023/02/06 04:59:34;;;;;;;27.42;3.75;;;;;;;3.73;100.00;104420.44;5045922;28;20029;-69
2023/02/06 05:02:00;;;;;;;29.17;3.90;;;;;;;3.73;100.00;104417.84;5046877;28;20025;-67
2023/02/06 05:04:25;;;;;;;31.20;4.00;;;;;;;3.73;100.00;104427.38;5037094;28;20034;-68
2023/02/06 05:06:51;;;;;;;32.35;3.85;;;;;;;3.67;100.00;104422.72;5039066;28;20025;-68
2023/02/06 05:09:16;;;;;;;22.48;3.80;;;;;;;3.56;100.00;104414.34;5036814;28;20033;-65
2023/02/06 05:11:41;;;;;;;20.85;3.75;;;;;;;3.47;100.00;104411.22;5042388;28;20559;-61
2023/02/06 05:14:07;;;;;;;17.88;3.65;;;;;;;3.36;100.00;104413.25;5041701;28;20028;-67
2023/02/06 05:16:32;;;;;;;27.15;3.78;;;;;;;3.34;100.00;104422.72;5046801;28;20025;-68
2023/02/06 05:18:57;;;;;;;20.85;3.85;;;;;;;3.33;100.00;104415.69;5046744;28;20055;-70
2023/02/06 05:21:23;;;;;;;32.40;4.35;;;;;;;3.38;100.00;104415.16;5046649;28;20029;-70
2023/02/06 05:23:49;;;;;;;38.55;3.97;;;;;;;3.43;100.00;104414.50;5047018;28;20067;-69
2023/02/06 05:26:14;;;;;;;24.40;3.80;;;;;;;3.46;100.00;104420.75;5044992;28;20294;-70
2023/02/06 05:28:39;;;;;;;30.67;4.78;;;;;;;3.47;100.00;104414.75;5046578;28;20140;-67
2023/02/06 05:31:05;;;;;;;31.95;4.10;;;;;;;3.53;100.00;104404.63;5046848;28;20454;-67
2023/02/06 05:33:30;;;;;;;29.75;4.35;;;;;;;3.56;100.00;104408.22;5046689;28;20887;-70
2023/02/06 05:36:04;;;;;;;35.55;5.13;;;;;;;3.47;100.00;104419.97;5046005;28;20108;-65
2023/02/06 05:38:30;;;;;;;28.58;5.55;;;;;;;3.50;100.00;104420.13;5041114;28;20111;-65
2023/02/06 05:40:55;;;;;;;35.63;5.32;;;;;;;3.49;100.00;104417.44;5041141;28;20396;-68
2023/02/06 05:43:21;;;;;;;32.22;5.78;;;;;;;3.45;100.00;104424.19;5037778;28;20025;-67
2023/02/06 05:45:46;;;;;;;27.60;5.32;;;;;;;3.45;100.00;104418.97;5042517;28;20032;-67
2023/02/06 05:48:11;;;;;;;29.80;5.00;;;;;;;3.48;100.00;104419.16;5047196;28;20032;-69
2023/02/06 05:50:36;;;;;;;26.00;5.68;;;;;;;3.49;100.00;104417.44;5050843;28;20443;-70
2023/02/06 05:53:02;;;;;;;34.08;6.97;;;;;;;3.54;100.00;104421.19;5049985;28;20078;-67
2023/02/06 05:55:27;;;;;;;30.05;6.82;;;;;;;3.64;100.00;104412.13;5050333;28;20048;-69
2023/02/06 05:57:52;;;;;;;42.55;6.25;;;;;;;3.70;100.00;104417.66;5050368;28;20476;-68
2023/02/06 06:00:18;;;;;;;40.45;7.15;;;;;;;3.79;100.00;104418.16;5048896;28;20068;-68
2023/02/06 06:02:43;;;;;;;42.30;5.43;;;;;;;3.87;100.00;104422.88;5049597;28;20108;-68
2023/02/06 06:05:09;;;;;;;34.08;7.10;;;;;;;3.90;100.00;104428.25;5047908;28;20021;-68
2023/02/06 06:07:34;;;;;;;54.60;8.43;;;;;;;3.92;100.00;104431.84;5048923;28;20025;-67
2023/02/06 06:10:00;;;;;;;48.15;8.40;;;;;;;3.98;100.00;104420.84;5050817;28;20074;-66
2023/02/06 06:12:25;;;;;;;42.67;8.07;;;;;;;3.97;100.00;104414.72;5050652;28;20052;-66
2023/02/06 06:14:51;;;;;;;37.47;8.70;;;;;;;4.00;100.00;104422.69;5050445;28;20608;-69
2023/02/06 06:17:16;;;;;;;33.90;8.05;;;;;;;4.07;100.00;104416.09;5051332;28;20033;-67
2023/02/06 06:19:41;;;;;;;33.95;7.10;;;;;;;4.13;100.00;104413.78;5051109;28;20594;-68
2023/02/06 06:22:07;;;;;;;42.50;8.02;;;;;;;4.15;100.00;104413.84;5048653;28;20029;-67
2023/02/06 06:24:32;;;;;;;40.58;6.43;;;;;;;4.17;100.00;104418.34;5047905;28;20126;-68
2023/02/06 06:26:58;;;;;;;41.10;6.50;;;;;;;4.10;100.00;104412.75;5040300;28;20510;-67
2023/02/06 06:29:24;;;;;;;39.13;5.88;;;;;;;4.13;100.00;104423.34;5036965;28;20021;-70
2023/02/06 06:31:49;;;;;;;47.35;7.20;;;;;;;4.12;100.00;104419.81;5036850;28;20040;-66
2023/02/06 06:34:14;;;;;;;30.73;6.22;;;;;;;4.21;100.00;104419.38;5041861;28;20482;-68
2023/02/06 06:36:40;;;;;;;39.08;6.57;;;;;;;4.22;100.00;104428.13;5042083;28;20024;-62
2023/02/06 06:39:05;;;;;;;32.83;5.70;;;;;;;4.28;100.00;104421.50;5040704;28;20025;-67
2023/02/06 06:41:31;;;;;;;36.80;5.20;;;;;;;4.33;100.00;104420.84;5042086;28;20021;-70
2023/02/06 06:43:57;;;;;;;42.38;5.00;;;;;;;4.29;100.00;104418.09;5049316;28;20029;-71
2023/02/06 06:46:22;;;;;;;38.58;5.15;;;;;;;4.34;100.00;104420.03;5050571;28;20033;-64
2023/02/06 06:48:48;;;;;;;50.22;4.55;;;;;;;4.36;100.00;104426.22;5048727;28;20078;-67
2023/02/06 06:51:13;;;;;;;44.65;4.78;;;;;;;4.43;100.00;104423.09;5050494;28;20046;-66
2023/02/06 06:53:39;;;;;;;42.75;5.10;;;;;;;4.43;100.00;104423.09;5048441;28;20078;-70
2023/02/06 06:56:06;;;;;;;44.17;4.15;;;;;;;4.47;100.00;104421.53;5049982;28;20109;-67
2023/02/06 06:58:32;;;;;;;25.73;3.78;;;;;;;4.42;100.00;104414.34;5048844;28;20025;-62
2023/02/06 07:00:57;;;;;;;32.28;4.65;;;;;;;4.34;100.00;104417.41;5042930;28;20353;-70
2023/02/06 07:03:22;;;;;;;37.22;4.30;;;;;;;4.32;100.00;104413.81;5038357;28;20043;-66
2023/02/06 07:05:48;;;;;;;26.77;3.63;;;;;;;4.37;100.00;104418.44;5038921;28;20075;-72
2023/02/06 07:08:13;;;;;;;43.63;4.72;;;;;;;4.42;100.00;104413.44;5038021;28;20053;-70
2023/02/06 07:10:38;;;;;;;40.10;4.53;;;;;;;4.41;100.00;104402.13;5039749;28;20075;-65
2023/02/06 07:13:04;;;;;;;33.78;4.38;;;;;;;4.41;100.00;104401.22;5039753;28;20019;-70
2023/02/06 07:15:29;;;;;;;26.10;4.32;;;;;;;4.37;100.00;104402.78;5040711;28;20041;-63
2023/02/06 07:17:55;;;;;;;38.38;5.47;;;;;;;4.46;100.00;104402.38;5041727;28;20100;-65
2023/02/06 07:20:20;;;;;;;29.60;4.10;;;;;;;4.50;100.00;104404.31;5045527;28;20090;-67
2023/02/06 07:22:46;;;;;;;29.05;4.82;;;;;;;4.47;100.00;104400.63;5038124;28;20014;-68
2023/02/06 07:25:12;;;;;;;31.63;4.88;;;;;;;4.48;100.00;104399.84;5038636;28;20133;-66
2023/02/06 07:27:37;;;;;;;41.72;4.97;;;;;;;4.45;100.00;104399.69;5038985;28;20072;-68
2023/02/06 07:30:03;;;;;;;35.40;4.85;;;;;;;4.43;100.00;104399.59;5039093;28;20057;-71
2023/02/06 07:32:28;;;;;;;33.83;4.88;;;;;;;4.42;100.00;104393.47;5038011;28;20029;-67
2023/02/06 07:34:53;;;;;;;36.53;4.93;;;;;;;4.42;100.00;104392.56;5039389;28;20032;-70
2023/02/06 07:37:19;;;;;;;41.67;5.63;;;;;;;4.42;100.00;104389.94;5049362;28;20053;-66
2023/02/06 07:39:44;;;;;;;40.33;5.43;;;;;;;4.43;100.00;104397.00;5047697;28;20037;-57
2023/02/06 07:42:10;;;;;;;39.15;5.60;;;;;;;4.42;100.00;104401.31;5043749;28;20028;-63
2023/02/06 07:44:36;;;;;;;33.97;5.90;;;;;;;4.45;100.00;104395.31;5040864;28;20031;-64
2023/02/06 07:47:01;;;;;;;25.75;4.40;;;;;;;4.40;100.00;104391.59;5045906;28;20021;-62
2023/02/06 07:49:27;;;;;;;41.25;6.03;;;;;;;4.35;100.00;104388.75;5039458;28;20166;-66
2023/02/06 07:51:52;;;;;;;35.97;5.82;;;;;;;4.35;100.00;104393.09;5048450;28;20070;-66
2023/02/06 07:54:17;;;;;;;40.47;7.03;;;;;;;4.34;100.00;104393.91;5047684;28;20175;-65
2023/02/06 07:56:43;;;;;;;32.83;6.40;;;;;;;4.32;100.00;104385.09;5045706;28;20067;-65
2023/02/06 07:59:08;;;;;;;43.75;7.43;;;;;;;4.38;100.00;104372.34;5046697;28;20376;-69
2023/02/06 08:01:34;;;;;;;40.13;11.75;;;;;;;4.45;100.00;104361.38;5045961;28;20047;-68
2023/02/06 08:04:00;;;;;;;39.38;12.23;;;;;;;4.51;100.00;104366.00;5046582;28;20048;-63
2023/02/06 08:06:25;;;;;;;31.73;7.88;;;;;;;4.47;100.00;104354.53;5048256;28;20029;-67
2023/02/06 08:08:54;;;;;;;55.80;14.40;;;;;;;4.43;100.00;104361.28;5048647;28;20045;-64
2023/02/06 08:11:20;;;;;;;42.97;15.32;;;;;;;4.45;100.00;104361.38;5048342;28;20028;-61
2023/02/06 08:13:46;;;;;;;57.75;17.83;;;;;;;4.43;100.00;104361.28;5047084;28;20755;-66
2023/02/06 08:16:13;;;;;;;43.88;13.77;;;;;;;4.47;100.00;104362.34;5047286;28;20124;-61
2023/02/06 08:18:39;;;;;;;33.33;9.73;;;;;;;4.43;100.00;104363.91;5047845;28;20021;-66
2023/02/06 08:21:17;;;;;;;36.50;8.15;;;;;;;4.40;100.00;104353.31;5045863;28;20029;-67
2023/02/06 08:23:42;;;;;;;23.92;7.20;;;;;;;4.48;100.00;104337.16;5046501;28;20524;-65
2023/02/06 08:26:09;;;;;;;35.90;7.78;;;;;;;4.55;100.00;104344.47;5047494;28;20060;-65
2023/02/06 08:28:35;;;;;;;34.60;6.60;;;;;;;4.55;100.00;104336.63;5036623;28;20041;-67
2023/02/06 08:31:13;;;;;;;33.88;5.82;;;;;;;4.53;100.00;104328.72;5036185;28;20037;-66
2023/02/06 08:33:38;;;;;;;41.22;5.90;;;;;;;4.47;100.00;104310.13;5038349;28;20514;-66
2023/02/06 08:36:04;;;;;;;25.95;5.78;;;;;;;4.45;100.00;104308.28;5037544;28;20030;-67
2023/02/06 08:38:30;;;;;;;31.83;5.63;;;;;;;4.42;100.00;104304.69;5027781;28;20033;-62
2023/02/06 08:40:55;;;;;;;34.03;5.05;;;;;;;4.52;100.00;104306.00;5027255;28;20026;-67
2023/02/06 08:43:21;;;;;;;37.95;5.18;;;;;;;4.60;100.00;104310.72;5026914;28;20085;-62
2023/02/06 08:45:48;;;;;;;38.17;6.25;;;;;;;4.63;100.00;104316.97;5028398;28;20388;-66
2023/02/06 08:48:14;;;;;;;48.10;8.18;;;;;;;4.65;100.00;104306.59;5028872;28;20116;-65
2023/02/06 08:50:39;;;;;;;39.92;6.85;;;;;;;4.73;100.00;104294.78;5026245;28;20117;-65
2023/02/06 08:53:05;;;;;;;51.97;10.63;;;;;;;4.82;100.00;104296.03;5028014;28;20040;-69
2023/02/06 08:55:30;;;;;;;86.18;15.98;;;;;;;4.92;100.00;104304.38;5028211;28;20022;-67
2023/02/06 08:57:55;;;;;;;74.45;14.88;;;;;;;4.99;100.00;104297.69;5041420;28;20374;-65
2023/02/06 09:00:21;;;;;;;88.78;16.67;;;;;;;5.02;100.00;104299.53;5046441;28;20051;-65
2023/02/06 09:02:46;;;;;;;66.90;17.77;;;;;;;5.06;100.00;104291.91;5047040;28;20092;-67
2023/02/06 09:05:13;;;;;;;69.82;16.05;;;;;;;5.08;100.00;104289.38;5047010;28;20049;-66
2023/02/06 09:07:38;;;;;;;59.10;12.90;;;;;;;5.12;100.00;104290.41;5047717;28;20414;-68
2023/02/06 09:10:04;;;;;;;73.57;13.45;;;;;;;5.12;100.00;104301.75;5048165;28;20120;-68
2023/02/06 09:12:29;;;;;;;82.28;13.98;;;;;;;5.08;100.00;104293.72;5042332;28;20021;-63
2023/02/06 09:14:54;;;;;;;68.07;12.40;;;;;;;5.08;100.00;104291.13;5039392;28;20408;-69
2023/02/06 09:17:20;;;;;;;66.22;18.30;;;;;;;5.08;100.00;104285.88;5039658;28;20029;-63
2023/02/06 09:19:45;;;;;;;67.68;15.02;;;;;;;4.99;100.00;104300.31;5043945;28;20412;-67
2023/02/06 09:22:10;;;;;;;51.80;9.38;;;;;;;4.94;100.00;104296.59;5029385;28;20912;-63
2023/02/06 09:24:36;;;;;;;38.85;7.15;;;;;;;4.90;100.00;104290.34;5030258;28;20025;-64
2023/02/06 09:27:02;;;;;;;32.58;6.57;;;;;;;4.90;100.00;104285.09;5038782;28;20131;-66
2023/02/06 09:29:27;;;;;;;34.42;6.05;;;;;;;4.95;100.00;104292.25;5050797;28;20028;-66
2023/02/06 09:31:53;;;;;;;33.47;6.15;;;;;;;4.92;100.00;104288.69;5050569;28;20099;-65
2023/02/06 09:34:18;;;;;;;40.67;5.80;;;;;;;4.94;100.00;104291.38;5051958;28;20036;-65
2023/02/06 09:36:44;;;;;;;44.67;6.03;;;;;;;4.93;100.00;104287.88;5049420;28;20037;-63
2023/02/06 09:39:10;;;;;;;30.27;5.97;;;;;;;4.97;100.00;104281.03;5049238;28;20036;-67
2023/02/06 09:42:02;;;;;;;29.52;5.35;;;;;;;5.07;100.00;104282.38;5031785;28;20017;-64
2023/02/06 09:44:50;;;;;;;44.97;6.28;;;;;;;5.18;100.00;104290.69;5024245;28;20124;-66
2023/02/06 09:47:31;;;;;;;34.30;5.85;;;;;;;5.28;100.00;104285.06;5036324;28;20371;-68
2023/02/06 09:50:01;;;;;;;37.13;4.88;;;;;;;5.47;100.00;104292.78;5050301;28;20017;-65
2023/02/06 09:52:29;;;;;;;42.63;6.70;;;;;;;5.64;100.00;104296.13;5049910;28;20545;-61
2023/02/06 09:54:59;;;;;;;40.17;5.05;;;;;;;5.74;100.00;104303.53;5051484;28;20053;-64
2023/02/06 09:57:53;;;;;;;46.15;7.03;;;;;;;5.85;100.00;104310.97;5044965;28;20039;-64
2023/02/06 10:00:21;;;;;;;41.47;6.75;;;;;;;5.96;100.00;104316.66;5021406;28;20090;-64
2023/02/06 10:02:58;;;;;;;37.65;7.53;;;;;;;6.09;100.00;104316.38;5042546;28;20028;-64
2023/02/06 10:05:44;;;;;;;42.50;6.78;;;;;;;6.17;100.00;104314.94;5033292;28;20108;-62
2023/02/06 10:08:20;;;;;;;50.35;6.40;;;;;;;6.26;100.00;104318.78;5028103;28;20017;-61
2023/02/06 10:10:57;;;;;;;44.95;6.05;;;;;;;6.42;100.00;104326.41;5035700;28;20061;-66
2023/02/06 10:13:41;;;;;;;32.78;5.97;;;;;;;6.45;100.00;104337.00;5031990;28;20072;-65
2023/02/06 10:16:46;;;;;;;50.72;6.38;;;;;;;6.52;100.00;104334.63;5029001;28;20047;-65
2023/02/06 10:19:48;;;;;;;35.80;5.28;;;;;;;6.64;100.00;104331.59;5040930;28;20045;-66
2023/02/06 10:22:19;;;;;;;31.77;5.38;;;;;;;6.76;100.00;104339.03;5040680;28;20067;-63
2023/02/06 10:25:06;;;;;;;44.38;5.68;;;;;;;6.89;100.00;104338.69;5035961;28;20559;-62
2023/02/06 10:27:34;;;;;;;44.58;7.22;;;;;;;6.95;100.00;104338.00;5054294;28;20100;-63
2023/02/06 10:29:59;;;;;;;35.13;5.05;;;;;;;6.83;100.00;104334.09;5037581;28;20471;-65
2023/02/06 10:32:43;;;;;;;39.47;5.35;;;;;;;7.13;100.00;104321.22;5039377;28;20116;-63
2023/02/06 10:35:08;;;;;;;31.30;4.72;;;;;;;7.37;100.00;104329.06;5038281;28;20444;-61
2023/02/06 10:37:50;;;;;;;35.05;4.13;;;;;;;7.55;100.00;104315.69;5039819;28;20033;-67
2023/02/06 10:40:57;;;;;;;24.13;3.75;;;;;;;7.81;100.00;104314.81;5038817;28;20503;-67
2023/02/06 10:43:28;;;;;;;28.30;4.10;;;;;;;8.00;100.00;104313.69;5006244;28;20034;-62
2023/02/06 10:46:19;;;;;;;25.92;4.53;;;;;;;8.33;100.00;104327.88;5044997;28;20170;-67
2023/02/06 10:49:00;;;;;;;22.80;4.60;;;;;;;8.63;100.00;104318.28;5047098;28;20561;-66
2023/02/06 10:51:32;;;;;;;28.48;4.38;;;;;;;8.77;100.00;104309.09;5029607;28;20053;-63
2023/02/06 10:54:00;;;;;;;35.55;3.85;;;;;;;8.83;100.00;104304.03;5029918;28;20477;-67
2023/02/06 10:56:45;;;;;;;29.95;4.57;;;;;;;8.72;100.00;104310.69;5027718;28;20029;-65
2023/02/06 10:59:21;;;;;;;21.77;3.85;;;;;;;8.67;100.00;104305.28;5031180;28;20031;-66
2023/02/06 11:01:50;;;;;;;21.13;3.50;;;;;;;8.68;100.00;104300.94;5046090;28;20685;-64
2023/02/06 11:04:38;;;;;;;29.10;4.40;;;;;;;8.51;100.00;104303.91;5039262;28;20041;-63
2023/02/06 11:07:23;;;;;;;30.23;4.45;;;;;;;8.30;100.00;104299.75;5043330;28;20037;-67
2023/02/06 11:09:50;;;;;;;31.23;4.10;;;;;;;8.35;100.00;104297.28;5046316;28;20024;-66
2023/02/06 11:12:29;;;;;;;28.17;4.15;;;;;;;8.82;100.00;104302.22;5049106;28;20438;-67
2023/02/06 11:14:57;;;;;;;26.65;4.15;;;;;;;8.74;100.00;104308.09;5044688;28;20078;-67
2023/02/06 11:17:26;;;;;;;23.45;4.88;;;;;;;9.05;100.00;104296.75;5041153;28;20016;-64
2023/02/06 11:19:52;;;;;;;;;;;;;;;9.05;100.00;104294.09;5046404;28;20021;-65
2023/02/06 11:22:29;;;;;;;31.05;4.30;;;;;;;8.97;100.00;104291.25;5043568;28;20023;-66
2023/02/06 11:25:24;;;;;;;28.40;4.93;;;;;;;8.37;100.00;104297.34;5047614;28;20020;-66